»·PEaware :: N520DR L70-KPRB

N520DR :: L70-KPRB

FLIGHT INFORMATION

Flight Status: Arrived
Operator: Privately registered:
United States
More flights under this callsign
Pilot: Manuel P. (9695)
Aircraft: ECLIPSE 500
(EA50)
More flights by this aircraft type
Origin: L70 Agua Dulce
United States
Destination: KPRB Paso Robles Mun
United States
More flights between these airports :: More routes between these airports
Route: FIM V107 PRB
File this flight plan on PilotEdge
Remarks:
Altitude:
(Current/Filed)
8,500ft
Speed:
(Current/Filed)
400kts
Departed: 15-Jun-17 03:28 PM
Arrived: 15-Jun-17 04:07 PM
Distance/Time
Traveled:
134nm/0:39
Distance/Time
To Go:
Arrived

Flight Plot

Page will automatically refresh every two minutes.

Flight plan parsing failed; only flown route is shown


Map Options




Map Legend


Flown Route
Filed Route
Departure Airport
Arrival Airport
Navaid (VOR, NDB)
Fix

Horizontal Profiles

Position Reports

Time Latitude Longitude Heading Altitude Ground
Speed
15-Jun-17 15:24 34.503906 -118.311361 324 2663ft 0kts
15-Jun-17 15:25 34.503906 -118.311361 324 2663ft 0kts
15-Jun-17 15:26 34.503906 -118.311361 324 2663ft 0kts
15-Jun-17 15:27 34.504436 -118.310810 54 2663ft 5kts
15-Jun-17 15:28 34.505925 -118.308423 52 2663ft 11kts
15-Jun-17 15:29 34.507343 -118.306880 276 2663ft 4kts
15-Jun-17 15:30 34.494873 -118.325163 232 3379ft 104kts
15-Jun-17 15:31 34.487198 -118.360439 257 5087ft 123kts
15-Jun-17 15:32 34.476713 -118.411066 256 6297ft 205kts
15-Jun-17 15:33 34.458659 -118.487506 256 6624ft 257kts
15-Jun-17 15:34 34.436991 -118.573802 256 6622ft 275kts
15-Jun-17 15:35 34.414524 -118.660686 255 6727ft 280kts
15-Jun-17 15:36 34.390949 -118.751125 255 6763ft 286kts
15-Jun-17 15:37 34.367026 -118.843003 259 6596ft 286kts
15-Jun-17 15:38 34.407695 -118.915149 320 6602ft 273kts
15-Jun-17 15:39 34.466909 -118.970646 325 6791ft 269kts
15-Jun-17 15:40 34.527643 -119.023364 326 7233ft 259kts
15-Jun-17 15:41 34.582582 -119.070015 326 8646ft 236kts
15-Jun-17 15:42 34.641401 -119.119614 326 8675ft 277kts
15-Jun-17 15:43 34.706398 -119.174408 326 8471ft 285kts
15-Jun-17 15:44 34.769921 -119.228026 326 7480ft 274kts
15-Jun-17 15:45 34.829592 -119.278364 325 6990ft 254kts
15-Jun-17 15:46 34.888122 -119.327992 325 6487ft 253kts
15-Jun-17 15:47 34.944300 -119.375657 325 6496ft 243kts
15-Jun-17 15:48 35.003253 -119.425758 325 6491ft 268kts
15-Jun-17 15:49 35.064418 -119.477821 325 6504ft 267kts
15-Jun-17 15:50 35.123345 -119.528072 325 6489ft 257kts
15-Jun-17 15:51 35.181702 -119.578393 319 6489ft 260kts
15-Jun-17 15:52 35.208739 -119.658798 294 6486ft 265kts
15-Jun-17 15:53 35.237220 -119.742335 294 6500ft 266kts
15-Jun-17 15:54 35.265188 -119.826249 293 6487ft 266kts
15-Jun-17 15:55 35.292844 -119.909995 293 6497ft 267kts
15-Jun-17 15:56 35.320524 -119.994233 293 6497ft 267kts
15-Jun-17 15:57 35.347573 -120.078876 292 6463ft 268kts
15-Jun-17 15:58 35.374384 -120.162968 294 6459ft 265kts
15-Jun-17 15:59 35.401866 -120.246695 294 6455ft 265kts
15-Jun-17 16:00 35.428280 -120.326891 294 5418ft 238kts
15-Jun-17 16:01 35.451243 -120.396416 294 5086ft 204kts
15-Jun-17 16:02 35.484897 -120.453399 324 4411ft 235kts
15-Jun-17 16:03 35.533443 -120.497367 325 3158ft 198kts
15-Jun-17 16:04 35.573296 -120.533122 323 2686ft 159kts
15-Jun-17 16:05 35.607572 -120.564044 323 2020ft 127kts
15-Jun-17 16:06 35.629701 -120.583998 321 1781ft 90kts
15-Jun-17 16:07 35.650405 -120.602485 322 1413ft 94kts
15-Jun-17 16:08 35.670647 -120.620977 323 838ft 70kts
15-Jun-17 16:09 35.677259 -120.627073 291 838ft 2kts
15-Jun-17 16:10 35.677347 -120.629160 268 838ft 3kts
15-Jun-17 16:11 35.675706 -120.630696 209 838ft 10kts
15-Jun-17 16:12 35.673880 -120.632526 272 838ft 12kts
15-Jun-17 16:13 35.673877 -120.634936 269 838ft 10kts
15-Jun-17 16:14 35.673684 -120.637094 215 838ft 8kts
15-Jun-17 16:15 35.672739 -120.637674 266 838ft 0kts

Navigation Log

Ident Type
Flight plan parsing failed, navigation log unavailable